Time;durP1;ratioP1;P1;durP2;ratioP2;P2;SDS_P1;SDS_P2;PMS_P1;PMS_P2;Temp;Humidity;BMP_temperature;BMP_pressure;BME280_temperature;BME280_humidity;BME280_pressure;Samples;Min_cycle;Max_cycle;Signal;HPM_P1;HPM_P2
2020/12/23 00:00:10;;;;;;;3.85;1.00;;;7.70;99.90;;;;;;5038186;28;20036;-59
2020/12/23 00:02:36;;;;;;;5.63;1.33;;;7.60;99.90;;;;;;5031659;28;20021;-60
2020/12/23 00:05:06;;;;;;;10.95;1.40;;;7.50;99.90;;;;;;5039912;28;20039;-60
2020/12/23 00:07:32;;;;;;;8.05;1.10;;;7.40;99.90;;;;;;5030962;28;20148;-59
2020/12/23 00:09:57;;;;;;;8.27;1.38;;;7.40;99.90;;;;;;5038733;28;20100;-59
2020/12/23 00:12:23;;;;;;;6.78;0.90;;;7.30;99.90;;;;;;5043010;28;20498;-59
2020/12/23 00:14:48;;;;;;;5.20;1.15;;;7.30;99.90;;;;;;5038914;28;20025;-59
2020/12/23 00:17:20;;;;;;;8.55;1.10;;;7.30;99.90;;;;;;5039155;28;20033;-59
2020/12/23 00:19:47;;;;;;;6.40;1.23;;;7.20;99.90;;;;;;5034566;28;20104;-59
2020/12/23 00:22:12;;;;;;;6.40;0.95;;;7.20;99.90;;;;;;5032018;28;20119;-60
2020/12/23 00:24:38;;;;;;;11.38;1.80;;;7.20;99.90;;;;;;5034849;28;20485;-60
2020/12/23 00:27:03;;;;;;;7.22;1.20;;;7.10;99.90;;;;;;5034619;28;20433;-59
2020/12/23 00:29:29;;;;;;;5.40;1.00;;;7.10;99.90;;;;;;5070196;28;20390;-59
2020/12/23 00:31:54;;;;;;;10.80;1.33;;;7.10;99.90;;;;;;5035434;28;20385;-59
2020/12/23 00:34:20;;;;;;;6.57;1.15;;;7.10;99.90;;;;;;5046655;28;20033;-60
2020/12/23 00:36:56;;;;;;;6.30;1.05;;;7.10;99.90;;;;;;5040318;28;20039;-60
2020/12/23 00:39:22;;;;;;;8.00;1.40;;;7.10;99.90;;;;;;5040926;28;20108;-59
2020/12/23 00:41:48;;;;;;;5.78;0.90;;;7.10;99.90;;;;;;5037366;28;20128;-59
2020/12/23 00:44:14;;;;;;;8.05;0.90;;;7.10;99.90;;;;;;5036915;28;20044;-59
2020/12/23 00:46:40;;;;;;;5.20;1.25;;;7.10;99.90;;;;;;5051021;28;20107;-59
2020/12/23 00:49:05;;;;;;;6.38;0.93;;;7.10;99.90;;;;;;5033128;28;20096;-59
2020/12/23 00:51:31;;;;;;;4.20;1.20;;;7.20;99.90;;;;;;5039587;28;20603;-59
2020/12/23 00:53:56;;;;;;;7.18;1.63;;;7.20;99.90;;;;;;5036237;28;20038;-58
2020/12/23 00:56:22;;;;;;;9.68;1.45;;;7.30;99.90;;;;;;5047873;28;20036;-59
2020/12/23 00:58:48;;;;;;;17.00;3.92;;;7.30;99.90;;;;;;5045900;28;20120;-59
2020/12/23 01:01:13;;;;;;;19.75;4.95;;;7.30;99.90;;;;;;5041113;28;20025;-59
2020/12/23 01:03:39;;;;;;;18.23;5.07;;;7.40;99.90;;;;;;5033115;28;20084;-60
2020/12/23 01:06:08;;;;;;;25.27;6.25;;;7.40;99.90;;;;;;5043181;28;20453;-59
2020/12/23 01:08:34;;;;;;;24.10;6.97;;;7.30;99.90;;;;;;5040281;28;20017;-60
2020/12/23 01:10:59;;;;;;;29.00;9.05;;;7.40;99.90;;;;;;5041283;28;20075;-60
2020/12/23 01:13:25;;;;;;;29.80;8.10;;;7.40;99.90;;;;;;5043673;28;20025;-59
2020/12/23 01:15:50;;;;;;;32.45;9.63;;;7.30;99.90;;;;;;5046456;28;20390;-59
2020/12/23 01:18:16;;;;;;;24.70;7.30;;;7.40;99.90;;;;;;5034875;28;20044;-60
2020/12/23 01:20:41;;;;;;;18.58;5.30;;;7.40;99.90;;;;;;5044328;28;20048;-59
2020/12/23 01:23:07;;;;;;;18.80;5.00;;;7.40;99.90;;;;;;5033351;28;20558;-59
2020/12/23 01:25:32;;;;;;;18.77;4.88;;;7.30;99.90;;;;;;5043637;28;20022;-59
2020/12/23 01:27:58;;;;;;;20.70;5.00;;;7.40;99.90;;;;;;5040525;28;20026;-59
2020/12/23 01:30:23;;;;;;;21.95;5.57;;;7.30;99.90;;;;;;5038315;28;20036;-59
2020/12/23 01:32:49;;;;;;;20.98;4.97;;;7.40;99.90;;;;;;5043701;28;20060;-59
2020/12/23 01:35:15;;;;;;;8.85;3.20;;;7.40;99.90;;;;;;5042633;28;20379;-59
2020/12/23 01:37:40;;;;;;;8.63;2.47;;;7.40;99.90;;;;;;5037589;28;20029;-60
2020/12/23 01:40:06;;;;;;;5.95;1.48;;;7.40;99.90;;;;;;5035294;28;20026;-59
2020/12/23 01:42:33;;;;;;;10.52;2.58;;;7.40;99.90;;;;;;5035292;28;20025;-60
2020/12/23 01:45:00;;;;;;;9.93;1.65;;;7.40;99.90;;;;;;5041688;28;20025;-59
2020/12/23 01:47:26;;;;;;;6.45;1.10;;;7.40;99.90;;;;;;5038454;28;20052;-59
2020/12/23 01:49:52;;;;;;;7.18;1.35;;;7.40;99.90;;;;;;5042211;28;20144;-59
2020/12/23 01:52:18;;;;;;;4.70;0.95;;;7.40;99.90;;;;;;5039968;28;20049;-59
2020/12/23 01:54:45;;;;;;;8.40;1.30;;;7.40;99.90;;;;;;5038529;28;20036;-59
2020/12/23 01:57:11;;;;;;;5.97;1.05;;;7.40;99.90;;;;;;5033665;28;20513;-59
2020/12/23 01:59:37;;;;;;;3.17;1.30;;;7.30;99.90;;;;;;5039334;28;20036;-59
2020/12/23 02:02:27;;;;;;;3.28;1.08;;;7.30;99.90;;;;;;5045117;28;20033;-59
2020/12/23 02:04:56;;;;;;;5.63;1.20;;;7.30;99.90;;;;;;5037992;28;20037;-59
2020/12/23 02:07:23;;;;;;;6.15;1.30;;;7.30;99.90;;;;;;5044215;28;20030;-59
2020/12/23 02:09:51;;;;;;;3.92;1.05;;;7.20;99.90;;;;;;5040724;28;20029;-59
2020/12/23 02:12:17;;;;;;;6.85;1.20;;;7.20;99.90;;;;;;5051387;28;20068;-59
2020/12/23 02:14:42;;;;;;;5.70;1.27;;;7.20;99.90;;;;;;5034975;28;20497;-59
2020/12/23 02:17:08;;;;;;;6.47;1.17;;;7.20;99.90;;;;;;5046565;28;20100;-59
2020/12/23 02:19:34;;;;;;;7.70;1.63;;;7.20;99.90;;;;;;5039865;28;20328;-60
2020/12/23 02:22:01;;;;;;;6.13;1.15;;;7.20;99.90;;;;;;5046544;28;20041;-59
2020/12/23 02:24:27;;;;;;;8.55;1.25;;;7.10;99.90;;;;;;5036065;28;20025;-59
2020/12/23 02:26:53;;;;;;;7.10;1.42;;;7.10;99.90;;;;;;5033910;28;20032;-60
2020/12/23 02:29:18;;;;;;;9.27;1.60;;;7.10;99.90;;;;;;5039360;28;20029;-59
2020/12/23 02:31:44;;;;;;;5.90;1.25;;;7.10;99.90;;;;;;5038698;28;20033;-59
2020/12/23 02:34:09;;;;;;;6.13;1.30;;;7.10;99.90;;;;;;5046407;28;20048;-59
2020/12/23 02:36:34;;;;;;;7.38;1.67;;;7.10;99.90;;;;;;5031642;28;20113;-59
2020/12/23 02:39:00;;;;;;;6.55;1.10;;;7.10;99.90;;;;;;5033546;28;20029;-60
2020/12/23 02:41:26;;;;;;;5.40;1.42;;;7.10;99.90;;;;;;5035597;28;20037;-59
2020/12/23 02:43:51;;;;;;;5.45;1.35;;;7.10;99.90;;;;;;5037484;28;20111;-60
2020/12/23 02:46:19;;;;;;;6.35;1.00;;;7.10;99.90;;;;;;5042495;28;20071;-59
2020/12/23 02:48:44;;;;;;;2.63;0.88;;;7.10;99.90;;;;;;5045330;28;20189;-59
2020/12/23 02:51:10;;;;;;;8.13;1.30;;;7.10;99.90;;;;;;5038958;28;20091;-59
2020/12/23 02:53:35;;;;;;;6.07;1.55;;;7.10;99.90;;;;;;5034084;28;20549;-60
2020/12/23 02:56:04;;;;;;;9.77;1.40;;;7.10;99.90;;;;;;5039883;28;20080;-59
2020/12/23 02:58:29;;;;;;;6.82;1.63;;;7.10;99.90;;;;;;5036469;28;20035;-60
2020/12/23 03:00:54;;;;;;;7.70;1.13;;;7.00;99.90;;;;;;5036399;28;20037;-60
2020/12/23 03:03:20;;;;;;;7.47;0.90;;;7.00;99.90;;;;;;5033642;28;20060;-60
2020/12/23 03:05:45;;;;;;;8.93;1.08;;;7.00;99.90;;;;;;5041471;28;20096;-59
2020/12/23 03:08:11;;;;;;;6.80;1.15;;;7.00;99.90;;;;;;5033228;28;20036;-59
2020/12/23 03:10:36;;;;;;;5.75;1.50;;;6.90;99.90;;;;;;5038937;28;20042;-59
2020/12/23 03:13:02;;;;;;;5.63;1.10;;;6.90;99.90;;;;;;5035969;28;20026;-60
2020/12/23 03:15:28;;;;;;;8.85;1.67;;;6.90;99.90;;;;;;5035860;28;20029;-60
2020/12/23 03:17:53;;;;;;;8.73;1.40;;;6.90;99.90;;;;;;5037496;28;20025;-59
2020/12/23 03:20:18;;;;;;;3.13;1.17;;;6.80;99.90;;;;;;5034125;28;20581;-59
2020/12/23 03:22:44;;;;;;;7.35;0.75;;;6.80;99.90;;;;;;5033802;28;20041;-59
2020/12/23 03:25:09;;;;;;;6.60;1.23;;;6.80;99.90;;;;;;5034048;28;20478;-59
2020/12/23 03:27:35;;;;;;;6.97;1.45;;;6.70;99.90;;;;;;5032353;28;20036;-59
2020/12/23 03:30:00;;;;;;;6.68;1.23;;;6.70;99.90;;;;;;5033491;28;20475;-59
2020/12/23 03:32:26;;;;;;;8.30;1.20;;;6.70;99.90;;;;;;5032432;28;20045;-60
2020/12/23 03:34:51;;;;;;;9.02;1.55;;;6.60;99.90;;;;;;5032625;28;20064;-59
2020/12/23 03:37:17;;;;;;;6.82;1.17;;;6.60;99.90;;;;;;5047618;28;20497;-59
2020/12/23 03:39:42;;;;;;;9.25;1.17;;;6.70;99.90;;;;;;5041228;28;20482;-60
2020/12/23 03:42:08;;;;;;;7.75;1.30;;;6.70;99.90;;;;;;5038897;28;20162;-60
2020/12/23 03:44:33;;;;;;;3.38;0.80;;;6.70;99.90;;;;;;5030673;28;20033;-59
2020/12/23 03:46:58;;;;;;;7.28;1.38;;;6.60;99.90;;;;;;5040541;28;20627;-59
2020/12/23 03:49:24;;;;;;;6.15;1.20;;;6.60;99.90;;;;;;5041602;28;20033;-59
2020/12/23 03:51:49;;;;;;;5.10;1.10;;;6.70;99.90;;;;;;5033177;28;20433;-59
2020/12/23 03:54:15;;;;;;;6.38;1.10;;;6.70;99.90;;;;;;5034773;28;20029;-60
2020/12/23 03:56:40;;;;;;;7.82;1.05;;;6.70;99.90;;;;;;5039116;28;20034;-59
2020/12/23 03:59:06;;;;;;;8.45;1.55;;;6.70;99.90;;;;;;5048438;28;20482;-59
2020/12/23 04:01:31;;;;;;;3.42;1.35;;;6.70;99.90;;;;;;5033318;28;20071;-59
2020/12/23 04:03:57;;;;;;;11.32;1.40;;;6.70;99.90;;;;;;5031934;28;20403;-59
2020/12/23 04:06:22;;;;;;;9.65;1.92;;;6.70;99.90;;;;;;5033814;28;20017;-59
2020/12/23 04:08:48;;;;;;;4.07;0.95;;;6.70;99.90;;;;;;5035308;28;20486;-60
2020/12/23 04:11:13;;;;;;;6.75;1.00;;;6.70;99.90;;;;;;5036971;28;20025;-59
2020/12/23 04:13:39;;;;;;;6.38;1.05;;;6.70;99.90;;;;;;5031866;28;20033;-60
2020/12/23 04:16:04;;;;;;;7.95;1.38;;;6.70;99.90;;;;;;5038182;28;20033;-59
2020/12/23 04:18:30;;;;;;;3.80;0.88;;;6.60;99.90;;;;;;5036617;28;20078;-60
2020/12/23 04:20:55;;;;;;;5.07;1.17;;;6.70;99.90;;;;;;5041865;28;20402;-61
2020/12/23 04:23:20;;;;;;;5.93;1.08;;;6.70;99.90;;;;;;5041347;28;20033;-59
2020/12/23 04:25:46;;;;;;;4.95;1.05;;;6.70;99.90;;;;;;5049637;28;20401;-60
2020/12/23 04:28:11;;;;;;;2.75;1.08;;;6.70;99.90;;;;;;5036945;28;20045;-59
2020/12/23 04:30:37;;;;;;;5.00;1.25;;;6.70;99.90;;;;;;5033098;28;20054;-60
2020/12/23 04:33:03;;;;;;;5.00;1.20;;;6.70;99.90;;;;;;5041456;28;20029;-59
2020/12/23 04:35:28;;;;;;;7.00;1.67;;;6.70;99.90;;;;;;5034225;28;20074;-59
2020/12/23 04:37:54;;;;;;;6.22;1.00;;;6.70;99.90;;;;;;5045765;28;20025;-59
2020/12/23 04:40:20;;;;;;;9.18;1.30;;;6.70;99.90;;;;;;5034678;28;20521;-59
2020/12/23 04:42:46;;;;;;;8.57;1.90;;;6.60;99.90;;;;;;5037884;28;20478;-59
2020/12/23 04:45:12;;;;;;;6.57;1.08;;;6.60;99.90;;;;;;5038801;28;20031;-60
2020/12/23 04:47:38;;;;;;;4.20;0.82;;;6.60;99.90;;;;;;5036771;28;20100;-59
2020/12/23 04:50:04;;;;;;;6.57;0.80;;;6.70;99.90;;;;;;5032110;28;20041;-59
2020/12/23 04:52:34;;;;;;;7.63;1.33;;;6.70;99.90;;;;;;5032441;28;20479;-59
2020/12/23 04:55:05;;;;;;;5.57;1.10;;;6.70;99.90;;;;;;5034201;28;20521;-59
2020/12/23 04:57:31;;;;;;;8.23;1.40;;;6.70;99.90;;;;;;5032910;28;20084;-59
2020/12/23 04:59:57;;;;;;;5.05;1.17;;;6.70;99.90;;;;;;5035854;28;20037;-59
2020/12/23 05:02:23;;;;;;;3.28;1.08;;;6.70;99.90;;;;;;5039095;28;20109;-59
2020/12/23 05:04:49;;;;;;;6.28;1.10;;;6.70;99.90;;;;;;5041956;28;20061;-59
2020/12/23 05:07:19;;;;;;;10.05;1.50;;;6.60;99.90;;;;;;5047358;28;20052;-59
2020/12/23 05:09:47;;;;;;;4.78;1.10;;;6.60;99.90;;;;;;5035003;28;20443;-60
2020/12/23 05:12:13;;;;;;;7.15;1.10;;;6.70;99.90;;;;;;5040878;28;20104;-60
2020/12/23 05:14:39;;;;;;;10.30;1.60;;;6.60;99.90;;;;;;5041131;28;20128;-59
2020/12/23 05:17:05;;;;;;;7.80;1.10;;;6.60;99.90;;;;;;5036173;28;20036;-60
2020/12/23 05:19:30;;;;;;;5.47;1.70;;;6.60;99.90;;;;;;5034701;28;20052;-59
2020/12/23 05:21:58;;;;;;;8.75;1.40;;;6.60;99.90;;;;;;5033866;28;20461;-60
2020/12/23 05:24:25;;;;;;;4.88;1.17;;;6.60;99.90;;;;;;5034729;28;20029;-59
2020/12/23 05:26:56;;;;;;;4.07;1.05;;;6.60;99.90;;;;;;5035283;28;20037;-60
2020/12/23 05:29:23;;;;;;;3.97;1.30;;;6.60;99.90;;;;;;5037706;28;20082;-60
2020/12/23 05:31:48;;;;;;;10.02;1.55;;;6.60;99.90;;;;;;5038135;28;20053;-60
2020/12/23 05:34:14;;;;;;;6.63;1.17;;;6.60;99.90;;;;;;5042066;28;20053;-60
2020/12/23 05:36:41;;;;;;;5.25;1.10;;;6.60;99.90;;;;;;5043844;28;20116;-59
2020/12/23 05:39:07;;;;;;;9.50;1.52;;;6.60;99.90;;;;;;5039479;28;20025;-59
2020/12/23 05:41:34;;;;;;;4.28;1.23;;;6.60;99.90;;;;;;5037307;28;20048;-60
2020/12/23 05:44:00;;;;;;;7.10;1.42;;;6.60;99.90;;;;;;5034759;28;20037;-60
2020/12/23 05:46:26;;;;;;;6.68;2.13;;;6.60;99.90;;;;;;5038213;28;20029;-60
2020/12/23 05:48:52;;;;;;;6.90;1.33;;;6.60;99.90;;;;;;5034343;28;20025;-59
2020/12/23 05:51:18;;;;;;;5.05;1.02;;;6.60;99.90;;;;;;5038305;28;20544;-59
2020/12/23 05:53:44;;;;;;;2.63;1.27;;;6.60;99.90;;;;;;5046331;28;20033;-59
2020/12/23 05:56:09;;;;;;;5.65;1.40;;;6.60;99.90;;;;;;5045500;28;20037;-60
2020/12/23 05:58:39;;;;;;;9.43;1.38;;;6.60;99.90;;;;;;5033707;28;20030;-59
2020/12/23 06:01:06;;;;;;;3.60;1.10;;;6.60;99.90;;;;;;5043200;28;20036;-59
2020/12/23 06:03:45;;;;;;;7.45;1.20;;;6.60;99.90;;;;;;5037372;28;20033;-60
2020/12/23 06:06:12;;;;;;;5.07;1.83;;;6.60;99.90;;;;;;5032940;28;20691;-60
2020/12/23 06:08:39;;;;;;;7.40;1.80;;;6.60;99.90;;;;;;5039757;28;20049;-59
2020/12/23 06:11:28;;;;;;;4.90;1.83;;;6.60;99.90;;;;;;5041297;28;20061;-60
2020/12/23 06:13:57;;;;;;;7.60;1.17;;;6.60;99.90;;;;;;5033614;28;20022;-60
2020/12/23 06:16:31;;;;;;;6.03;1.73;;;6.60;99.90;;;;;;5039125;28;20037;-60
2020/12/23 06:19:02;;;;;;;8.60;1.65;;;6.50;99.90;;;;;;5033523;28;20060;-59
2020/12/23 06:21:27;;;;;;;5.47;1.58;;;6.50;99.90;;;;;;5033045;28;20380;-60
2020/12/23 06:24:01;;;;;;;9.13;1.83;;;6.50;99.90;;;;;;5035535;28;20025;-59
2020/12/23 06:26:32;;;;;;;6.95;1.70;;;6.50;99.90;;;;;;5034979;28;20501;-60
2020/12/23 06:28:59;;;;;;;5.18;1.38;;;6.40;99.90;;;;;;5038766;28;20032;-60
2020/12/23 06:31:32;;;;;;;8.98;2.05;;;6.40;99.90;;;;;;5036675;28;20024;-60
2020/12/23 06:33:58;;;;;;;5.70;1.98;;;6.40;99.90;;;;;;5035685;28;20139;-60
2020/12/23 06:36:30;;;;;;;6.32;1.95;;;6.40;99.90;;;;;;5033000;28;20021;-60
2020/12/23 06:39:20;;;;;;;7.90;2.03;;;6.40;99.90;;;;;;5039986;28;20037;-59
2020/12/23 06:41:48;;;;;;;6.68;1.60;;;6.40;99.90;;;;;;5037138;28;20038;-59
2020/12/23 06:44:13;;;;;;;6.63;1.48;;;6.50;99.90;;;;;;5035518;28;20028;-59
2020/12/23 06:47:03;;;;;;;8.15;1.40;;;6.40;99.90;;;;;;5040752;28;20042;-59
2020/12/23 06:49:44;;;;;;;4.90;1.27;;;6.40;99.90;;;;;;5032898;28;20037;-59
2020/12/23 06:52:21;;;;;;;6.93;2.05;;;6.40;99.90;;;;;;5034383;28;20524;-59
2020/12/23 06:54:54;;;;;;;7.95;1.67;;;6.40;99.90;;;;;;5032957;28;20462;-60
2020/12/23 06:57:38;;;;;;;10.50;1.83;;;6.30;99.90;;;;;;5038482;28;20100;-60
2020/12/23 07:00:28;;;;;;;5.47;1.23;;;6.30;99.90;;;;;;5064243;28;20036;-60
2020/12/23 07:02:58;;;;;;;7.72;1.33;;;6.20;99.90;;;;;;5037868;28;20040;-59
2020/12/23 07:05:23;;;;;;;5.50;1.35;;;6.20;99.90;;;;;;5038099;28;20071;-60
2020/12/23 07:07:58;;;;;;;8.18;1.73;;;6.20;99.90;;;;;;5039715;28;20478;-59
2020/12/23 07:10:25;;;;;;;8.05;1.50;;;6.10;99.90;;;;;;5045362;28;20379;-60
2020/12/23 07:13:01;;;;;;;3.65;1.10;;;6.10;99.90;;;;;;5032995;28;20037;-60
2020/12/23 07:15:32;;;;;;;8.65;1.55;;;6.10;99.90;;;;;;5036678;28;20052;-60
2020/12/23 07:18:18;;;;;;;6.95;1.42;;;6.10;99.90;;;;;;5038454;28;20047;-60
2020/12/23 07:20:46;;;;;;;8.25;1.70;;;6.10;99.90;;;;;;5035102;28;20032;-60
2020/12/23 07:23:15;;;;;;;6.68;1.67;;;6.20;99.90;;;;;;5036006;28;20064;-59
2020/12/23 07:25:52;;;;;;;6.15;1.85;;;6.20;99.90;;;;;;5034953;28;20021;-60
2020/12/23 07:28:23;;;;;;;7.28;1.50;;;6.20;99.90;;;;;;5037544;28;20096;-59
2020/12/23 07:30:49;;;;;;;10.43;2.15;;;6.20;99.90;;;;;;5040609;28;20021;-59
2020/12/23 07:33:19;;;;;;;11.23;1.83;;;6.30;99.90;;;;;;5046665;28;20025;-61
2020/12/23 07:35:47;;;;;;;5.40;1.70;;;6.30;99.90;;;;;;5033883;28;20063;-60
2020/12/23 07:38:13;;;;;;;8.82;2.20;;;6.40;99.90;;;;;;5031285;28;20046;-60
2020/12/23 07:40:39;;;;;;;11.70;1.80;;;6.40;99.90;;;;;;5036943;28;20108;-59
2020/12/23 07:43:05;;;;;;;12.43;1.98;;;6.40;99.90;;;;;;5037680;28;20066;-60
2020/12/23 07:45:32;;;;;;;9.88;1.88;;;6.50;99.90;;;;;;5041000;28;20450;-60
2020/12/23 07:48:06;;;;;;;9.45;2.13;;;6.50;99.90;;;;;;5037027;28;20111;-59
2020/12/23 07:50:37;;;;;;;13.68;3.22;;;6.50;99.90;;;;;;5030461;28;20125;-59
2020/12/23 07:53:25;;;;;;;13.93;3.10;;;6.50;99.90;;;;;;5032274;28;20025;-59
2020/12/23 07:56:01;;;;;;;7.82;2.10;;;6.60;99.90;;;;;;5032352;28;20096;-60
2020/12/23 07:58:29;;;;;;;8.80;2.33;;;6.60;99.90;;;;;;5031308;28;20063;-60
2020/12/23 08:00:55;;;;;;;4.70;1.90;;;6.70;99.90;;;;;;5039876;28;20102;-60
2020/12/23 08:03:28;;;;;;;5.57;2.00;;;6.70;99.90;;;;;;5047567;28;20056;-59
2020/12/23 08:06:10;;;;;;;11.60;2.58;;;6.80;99.90;;;;;;5042096;28;20025;-59
2020/12/23 08:08:40;;;;;;;10.13;1.70;;;6.80;99.90;;;;;;5035371;28;20017;-60
2020/12/23 08:11:16;;;;;;;10.68;3.17;;;6.90;99.90;;;;;;5035134;28;20046;-59
2020/12/23 08:13:42;;;;;;;8.50;2.75;;;7.00;99.90;;;;;;5034694;28;20037;-60
2020/12/23 08:16:15;;;;;;;4.07;1.80;;;6.90;99.90;;;;;;5045415;28;20032;-60
2020/12/23 08:18:44;;;;;;;10.10;1.73;;;7.00;99.90;;;;;;5045149;28;20095;-60
2020/12/23 08:21:10;;;;;;;7.72;1.70;;;7.10;99.90;;;;;;5037913;28;20029;-60
2020/12/23 08:23:36;;;;;;;7.30;1.42;;;7.20;99.90;;;;;;5036496;28;20124;-59
2020/12/23 08:26:03;;;;;;;4.20;1.17;;;7.20;99.90;;;;;;5035894;28;20105;-60
2020/12/23 08:28:29;;;;;;;4.32;1.40;;;7.20;99.90;;;;;;5041284;28;20013;-60
2020/12/23 08:30:55;;;;;;;6.00;1.75;;;7.30;99.90;;;;;;5045466;28;20307;-60
2020/12/23 08:33:22;;;;;;;8.50;1.80;;;7.30;99.90;;;;;;5033989;28;20092;-60
2020/12/23 08:35:50;;;;;;;3.88;1.23;;;7.30;99.90;;;;;;5036224;28;20130;-59
2020/12/23 08:38:21;;;;;;;7.78;1.67;;;7.40;99.90;;;;;;5040540;28;20581;-60
2020/12/23 08:40:53;;;;;;;5.15;1.13;;;7.40;99.90;;;;;;5046392;28;20021;-59
2020/12/23 08:43:26;;;;;;;3.15;0.93;;;7.40;99.90;;;;;;5045980;28;20509;-59
2020/12/23 08:45:57;;;;;;;7.28;1.30;;;7.50;99.90;;;;;;5049338;28;20036;-59
2020/12/23 08:48:26;;;;;;;2.67;1.02;;;7.60;99.90;;;;;;5046884;28;20021;-59
2020/12/23 08:51:02;;;;;;;9.15;1.60;;;7.70;99.90;;;;;;5040616;28;20348;-60
2020/12/23 08:53:32;;;;;;;8.93;2.15;;;7.70;99.90;;;;;;5043760;28;20025;-60
2020/12/23 08:56:00;;;;;;;8.32;1.80;;;7.70;99.90;;;;;;5045321;28;20537;-59
2020/12/23 08:58:26;;;;;;;18.38;2.35;;;7.80;99.90;;;;;;5047363;28;20371;-59
2020/12/23 09:00:59;;;;;;;7.32;1.60;;;7.80;99.90;;;;;;5033816;28;20094;-59
2020/12/23 09:03:25;;;;;;;10.95;2.33;;;7.90;99.90;;;;;;5036803;28;20482;-59
2020/12/23 09:05:51;;;;;;;7.88;1.42;;;8.00;99.90;;;;;;5045964;28;20021;-59
2020/12/23 09:08:16;;;;;;;9.32;2.03;;;8.00;99.90;;;;;;5042041;28;20021;-59
2020/12/23 09:10:55;;;;;;;8.30;2.08;;;8.10;99.90;;;;;;5039667;28;20029;-59
2020/12/23 09:13:32;;;;;;;5.63;1.45;;;8.10;99.90;;;;;;5043259;28;20025;-60
2020/12/23 09:15:58;;;;;;;6.15;1.52;;;8.10;99.90;;;;;;5032919;28;20618;-59
2020/12/23 09:18:26;;;;;;;10.05;2.00;;;8.20;99.90;;;;;;5037300;28;20112;-59
2020/12/23 09:20:59;;;;;;;6.28;2.13;;;8.20;99.90;;;;;;5067414;28;20084;-59
2020/12/23 09:23:24;;;;;;;6.10;1.50;;;8.20;99.90;;;;;;5040219;28;20535;-59
2020/12/23 09:25:50;;;;;;;7.10;1.70;;;8.20;99.90;;;;;;5038927;28;20033;-59
2020/12/23 09:28:16;;;;;;;6.95;1.42;;;8.20;99.90;;;;;;5040573;28;20051;-59
2020/12/23 09:30:52;;;;;;;7.53;1.90;;;8.20;99.90;;;;;;5039272;28;20081;-59
2020/12/23 09:33:22;;;;;;;13.60;2.63;;;8.30;99.90;;;;;;5047366;28;20032;-59
2020/12/23 09:35:50;;;;;;;11.57;2.05;;;8.30;99.90;;;;;;5035985;28;20086;-59
2020/12/23 09:38:34;;;;;;;7.47;1.92;;;8.30;99.90;;;;;;5044600;28;20099;-59
2020/12/23 09:41:01;;;;;;;12.82;2.40;;;8.30;99.90;;;;;;5041735;28;20134;-59
2020/12/23 09:43:28;;;;;;;9.20;1.48;;;8.30;99.90;;;;;;5039951;28;20116;-60
2020/12/23 09:45:56;;;;;;;7.80;2.22;;;8.40;99.90;;;;;;5043244;28;20140;-59
2020/12/23 09:48:23;;;;;;;9.63;1.83;;;8.40;99.90;;;;;;5037833;28;20029;-60
2020/12/23 09:50:52;;;;;;;9.07;1.77;;;8.50;99.90;;;;;;5038403;28;20055;-60
2020/12/23 09:53:18;;;;;;;9.10;2.30;;;8.50;99.90;;;;;;5045333;28;20623;-59
2020/12/23 09:55:44;;;;;;;11.32;2.00;;;8.60;99.90;;;;;;5047814;28;20115;-59
2020/12/23 09:58:10;;;;;;;11.98;3.15;;;8.60;99.90;;;;;;5045906;28;20031;-59
2020/12/23 10:00:36;;;;;;;5.20;1.60;;;8.70;99.90;;;;;;5041175;28;20060;-59
2020/12/23 10:03:03;;;;;;;8.48;2.75;;;8.70;99.90;;;;;;5047265;28;20021;-59
2020/12/23 10:05:30;;;;;;;7.10;1.75;;;8.80;99.90;;;;;;5041694;28;20497;-59
2020/12/23 10:07:55;;;;;;;13.38;2.65;;;8.80;99.90;;;;;;5045633;28;20026;-59
2020/12/23 10:10:21;;;;;;;10.95;3.17;;;8.80;99.90;;;;;;5038364;28;20025;-59
2020/12/23 10:12:46;;;;;;;8.43;2.53;;;8.90;99.90;;;;;;5039030;28;20033;-59
2020/12/23 10:15:12;;;;;;;8.88;3.03;;;8.80;99.90;;;;;;5041811;28;20044;-59
2020/12/23 10:17:38;;;;;;;13.75;3.65;;;8.90;99.90;;;;;;5042226;28;20037;-59
2020/12/23 10:20:07;;;;;;;20.20;3.00;;;8.90;99.90;;;;;;5040735;28;20428;-59
2020/12/23 10:22:33;;;;;;;14.07;3.97;;;8.90;99.90;;;;;;5039091;28;20070;-59
2020/12/23 10:24:59;;;;;;;10.50;3.70;;;8.90;99.90;;;;;;5039730;28;20025;-59
2020/12/23 10:27:25;;;;;;;13.40;3.42;;;8.90;99.90;;;;;;5038954;28;20033;-59
2020/12/23 10:29:51;;;;;;;13.90;3.97;;;8.90;99.90;;;;;;5040640;28;20499;-59
2020/12/23 10:32:18;;;;;;;15.50;3.90;;;9.00;99.90;;;;;;5037855;28;20024;-59
2020/12/23 10:34:44;;;;;;;16.60;4.55;;;9.00;99.90;;;;;;5040888;28;20115;-59
2020/12/23 10:37:09;;;;;;;10.82;3.78;;;9.00;99.90;;;;;;5037894;28;20132;-59
2020/12/23 10:39:35;;;;;;;8.52;2.95;;;9.00;99.90;;;;;;5071587;28;20017;-57
2020/12/23 10:42:00;;;;;;;8.55;3.50;;;9.00;99.90;;;;;;5041202;28;20047;-59
2020/12/23 10:44:27;;;;;;;7.47;2.10;;;9.10;99.90;;;;;;5036215;28;20189;-59
2020/12/23 10:47:02;;;;;;;7.88;2.60;;;9.10;99.90;;;;;;5036247;28;20048;-59
2020/12/23 10:49:27;;;;;;;6.00;2.60;;;9.10;99.90;;;;;;5037187;28;21282;-59
2020/12/23 10:51:58;;;;;;;8.23;2.50;;;9.20;99.90;;;;;;5037810;28;20055;-59
2020/12/23 10:54:28;;;;;;;12.55;2.10;;;9.20;99.90;;;;;;5035324;28;20478;-59
2020/12/23 10:56:56;;;;;;;6.00;2.00;;;9.20;99.90;;;;;;5058900;28;20033;-59
2020/12/23 10:59:22;;;;;;;6.95;1.58;;;9.20;99.90;;;;;;5038384;28;20043;-59
2020/12/23 11:01:54;;;;;;;12.88;2.40;;;9.30;99.90;;;;;;5037211;28;20099;-59
2020/12/23 11:04:19;;;;;;;10.52;2.72;;;9.30;99.90;;;;;;5040258;28;20044;-59
2020/12/23 11:06:48;;;;;;;7.60;1.75;;;9.30;99.90;;;;;;5041644;28;20398;-59
2020/12/23 11:09:14;;;;;;;8.30;2.53;;;9.30;99.90;;;;;;5042939;28;20025;-59
2020/12/23 11:11:39;;;;;;;11.52;2.13;;;9.20;99.90;;;;;;5042599;28;20099;-59
2020/12/23 11:14:04;;;;;;;11.50;2.85;;;9.20;99.90;;;;;;5044451;28;20033;-59
2020/12/23 11:16:30;;;;;;;8.40;2.47;;;9.10;99.90;;;;;;5036743;28;20040;-59
2020/12/23 11:18:56;;;;;;;4.07;1.52;;;9.10;99.90;;;;;;5040833;28;20104;-59
2020/12/23 11:21:21;;;;;;;9.73;2.20;;;9.00;99.90;;;;;;5031906;28;20048;-59
2020/12/23 11:23:47;;;;;;;10.85;1.92;;;9.00;99.90;;;;;;5043256;28;20025;-59
2020/12/23 11:26:20;;;;;;;9.70;2.38;;;8.90;99.90;;;;;;5036842;28;20355;-59
2020/12/23 11:28:46;;;;;;;9.45;1.90;;;8.90;99.90;;;;;;5037642;28;20040;-59
2020/12/23 11:31:13;;;;;;;7.88;1.50;;;8.80;99.90;;;;;;5041798;28;20896;-59
2020/12/23 11:33:39;;;;;;;5.13;1.75;;;8.80;99.90;;;;;;5040988;28;20025;-59
2020/12/23 11:36:05;;;;;;;7.95;1.67;;;8.80;99.90;;;;;;5036293;28;20029;-59
2020/12/23 11:38:30;;;;;;;5.15;2.47;;;8.90;99.90;;;;;;5066996;28;20071;-59
2020/12/23 11:40:56;;;;;;;9.57;1.90;;;8.80;99.90;;;;;;5039782;28;20099;-59
2020/12/23 11:43:21;;;;;;;4.35;1.23;;;8.90;99.90;;;;;;5037618;28;20033;-59
2020/12/23 11:45:47;;;;;;;8.07;2.33;;;8.90;99.90;;;;;;5041162;28;20064;-59
2020/12/23 11:48:12;;;;;;;9.43;2.03;;;9.00;99.90;;;;;;5038278;28;20022;-58
2020/12/23 11:50:38;;;;;;;7.57;1.92;;;8.90;99.90;;;;;;5039101;28;20045;-59
2020/12/23 11:53:03;;;;;;;3.72;1.45;;;9.00;99.90;;;;;;5035140;28;20505;-59
2020/12/23 11:55:29;;;;;;;6.03;1.58;;;8.90;99.90;;;;;;5036191;28;20118;-59
2020/12/23 11:57:55;;;;;;;12.02;1.95;;;8.90;99.90;;;;;;5037586;28;20053;-59
2020/12/23 12:00:21;;;;;;;7.63;1.23;;;8.90;99.90;;;;;;5034436;28;20040;-59
2020/12/23 12:02:46;;;;;;;11.02;1.85;;;8.80;99.90;;;;;;5029874;28;20162;-59
2020/12/23 12:05:12;;;;;;;5.50;1.42;;;8.80;99.90;;;;;;5032785;28;20113;-60
2020/12/23 12:07:38;;;;;;;8.18;1.70;;;8.80;99.90;;;;;;5036111;28;20032;-60
2020/12/23 12:10:05;;;;;;;4.88;1.35;;;8.70;99.90;;;;;;5031222;28;20036;-59
2020/12/23 12:12:32;;;;;;;8.13;1.65;;;8.70;99.90;;;;;;5034716;28;20489;-59
2020/12/23 12:14:57;;;;;;;11.93;2.25;;;8.70;99.90;;;;;;5039017;28;20032;-59
2020/12/23 12:17:23;;;;;;;5.28;1.50;;;8.80;99.90;;;;;;5036308;28;20029;-59
2020/12/23 12:19:53;;;;;;;8.00;1.70;;;8.80;99.90;;;;;;5036568;28;20029;-60
2020/12/23 12:22:18;;;;;;;12.27;2.53;;;8.80;99.90;;;;;;5033267;28;20436;-59
2020/12/23 12:24:44;;;;;;;5.88;1.75;;;8.80;99.90;;;;;;5034835;28;20033;-59
2020/12/23 12:27:10;;;;;;;9.70;2.22;;;8.70;99.90;;;;;;5033242;28;20037;-59
2020/12/23 12:29:36;;;;;;;10.35;2.17;;;8.70;99.90;;;;;;5036836;28;20025;-60
2020/12/23 12:32:01;;;;;;;6.88;2.10;;;8.70;99.90;;;;;;5041480;28;20026;-59
2020/12/23 12:34:30;;;;;;;9.15;1.67;;;8.60;99.90;;;;;;5040852;28;20031;-59
2020/12/23 12:36:56;;;;;;;8.32;1.70;;;8.70;99.90;;;;;;5042271;28;20037;-59
2020/12/23 12:39:22;;;;;;;7.93;1.63;;;8.70;99.90;;;;;;5037985;28;20087;-60
2020/12/23 12:41:48;;;;;;;9.23;2.55;;;8.70;99.90;;;;;;5044315;28;20046;-59
2020/12/23 12:44:14;;;;;;;6.75;1.83;;;8.70;99.90;;;;;;5032683;28;20121;-60
2020/12/23 12:46:39;;;;;;;5.28;1.88;;;8.60;99.90;;;;;;5036556;28;20103;-59
2020/12/23 12:49:05;;;;;;;8.68;2.10;;;8.60;99.90;;;;;;5033645;28;20029;-59
2020/12/23 12:51:31;;;;;;;9.68;2.45;;;8.60;99.90;;;;;;5036943;28;20021;-59
2020/12/23 12:53:57;;;;;;;14.55;3.63;;;8.60;99.90;;;;;;5046768;28;20036;-60
2020/12/23 12:56:30;;;;;;;9.90;2.63;;;8.60;99.90;;;;;;5036080;28;20197;-60